Time;durP1;ratioP1;P1;durP2;ratioP2;P2;SDS_P1;SDS_P2;PMS_P1;PMS_P2;Temp;Humidity;BMP_temperature;BMP_pressure;BME280_temperature;BME280_humidity;BME280_pressure;Samples;Min_cycle;Max_cycle;Signal;HPM_P1;HPM_P2
2023/06/12 00:02:07;;;;;;;8.90;8.20;;;20.30;79.40;;;;;;4954147;28;20501;-59
2023/06/12 00:04:33;;;;;;;8.90;8.20;;;20.20;79.70;;;;;;4954775;29;20228;-59
2023/06/12 00:07:01;;;;;;;9.37;8.47;;;20.10;80.10;;;;;;4955596;28;20196;-59
2023/06/12 00:09:28;;;;;;;9.90;9.10;;;20.10;80.40;;;;;;4956101;29;20499;-59
2023/06/12 00:11:54;;;;;;;9.27;8.57;;;20.10;80.70;;;;;;4956436;29;20420;-59
2023/06/12 00:14:20;;;;;;;9.37;8.67;;;20.10;80.50;;;;;;4955985;28;20906;-59
2023/06/12 00:16:46;;;;;;;9.50;8.60;;;20.00;80.60;;;;;;4946052;29;20218;-60
2023/06/12 00:19:11;;;;;;;10.47;9.17;;;20.00;80.90;;;;;;4937445;29;20465;-59
2023/06/12 00:21:38;;;;;;;8.83;8.23;;;20.00;81.40;;;;;;4940876;29;20645;-59
2023/06/12 00:24:08;;;;;;;9.60;8.80;;;20.00;81.20;;;;;;4956114;28;20180;-59
2023/06/12 00:26:35;;;;;;;9.67;8.97;;;19.90;81.70;;;;;;4954583;28;20793;-59
2023/06/12 00:29:01;;;;;;;9.73;8.93;;;19.90;82.50;;;;;;4956337;29;20427;-59
2023/06/12 00:31:26;;;;;;;9.80;9.03;;;19.80;82.70;;;;;;4954648;29;20424;-59
2023/06/12 00:33:52;;;;;;;9.70;8.83;;;19.80;83.20;;;;;;4956260;28;20804;-60
2023/06/12 00:36:18;;;;;;;9.10;8.20;;;19.70;83.60;;;;;;4955589;28;20262;-59
2023/06/12 00:38:44;;;;;;;9.80;8.80;;;19.70;84.20;;;;;;4955900;29;20901;-59
2023/06/12 00:41:10;;;;;;;9.70;8.83;;;19.70;84.70;;;;;;4956124;28;20552;-59
2023/06/12 00:43:36;;;;;;;10.40;9.30;;;19.70;85.20;;;;;;4955350;28;20256;-59
2023/06/12 00:46:03;;;;;;;9.83;9.10;;;19.70;85.90;;;;;;4956371;28;20185;-59
2023/06/12 00:48:29;;;;;;;11.00;9.17;;;19.60;86.80;;;;;;4955477;28;20436;-59
2023/06/12 00:50:57;;;;;;;10.17;9.37;;;19.60;87.70;;;;;;4954820;29;20487;-59
2023/06/12 00:53:23;;;;;;;9.00;8.40;;;19.60;88.10;;;;;;4955003;28;20885;-59
2023/06/12 00:55:49;;;;;;;9.37;8.63;;;19.60;88.60;;;;;;4954183;28;20428;-59
2023/06/12 00:58:15;;;;;;;10.20;9.40;;;19.60;89.20;;;;;;4953998;28;20520;-59
2023/06/12 01:00:41;;;;;;;9.97;9.17;;;19.50;89.40;;;;;;4954605;29;20184;-59
2023/06/12 01:03:09;;;;;;;10.67;9.87;;;19.50;90.00;;;;;;4955550;29;20472;-59
2023/06/12 01:05:42;;;;;;;9.77;9.07;;;19.50;90.40;;;;;;4954144;29;20232;-59
2023/06/12 01:08:10;;;;;;;10.13;9.20;;;19.50;90.50;;;;;;4955382;28;20409;-59
2023/06/12 01:11:07;;;;;;;9.57;8.77;;;19.40;90.60;;;;;;4953728;29;20409;-59
2023/06/12 01:13:33;;;;;;;10.80;9.83;;;19.40;91.00;;;;;;4957560;28;20465;-59
2023/06/12 01:15:59;;;;;;;9.77;8.93;;;19.30;91.40;;;;;;4954810;29;20771;-59
2023/06/12 01:18:25;;;;;;;10.57;9.77;;;19.30;91.20;;;;;;4953880;28;20440;-59
2023/06/12 01:20:55;;;;;;;9.63;8.90;;;19.30;91.40;;;;;;4955012;29;20468;-59
2023/06/12 01:23:39;;;;;;;10.10;9.27;;;19.20;91.20;;;;;;4955012;29;20460;-59
2023/06/12 01:26:27;;;;;;;10.13;9.33;;;19.20;91.70;;;;;;4953378;29;20435;-59
2023/06/12 01:29:34;;;;;;;10.17;9.37;;;19.10;92.00;;;;;;4954242;29;20437;-59
2023/06/12 01:32:02;;;;;;;10.17;9.37;;;19.10;92.50;;;;;;4949854;29;20436;-59
2023/06/12 01:34:41;;;;;;;11.00;10.00;;;19.10;92.30;;;;;;4953401;29;20443;-59
2023/06/12 01:37:23;;;;;;;10.53;9.73;;;19.10;92.60;;;;;;4954681;28;20456;-59
2023/06/12 01:39:58;;;;;;;11.40;10.40;;;19.10;92.40;;;;;;4954471;28;20485;-60
2023/06/12 01:42:26;;;;;;;10.10;9.20;;;18.90;91.90;;;;;;4952562;28;20975;-59
2023/06/12 01:44:54;;;;;;;10.40;9.60;;;18.80;91.80;;;;;;4953662;28;20491;-60
2023/06/12 01:47:20;;;;;;;10.80;9.90;;;18.60;91.80;;;;;;4954565;28;20412;-60
2023/06/12 01:49:47;;;;;;;10.37;9.47;;;18.50;91.80;;;;;;4953755;29;20408;-59
2023/06/12 01:52:12;;;;;;;11.07;9.73;;;18.30;92.10;;;;;;4953740;29;20464;-60
2023/06/12 01:54:38;;;;;;;11.23;10.17;;;18.30;92.50;;;;;;4953686;29;20404;-59
2023/06/12 01:57:05;;;;;;;13.33;9.47;;;18.40;94.40;;;;;;4952811;29;20670;-60
2023/06/12 01:59:34;;;;;;;10.53;9.70;;;18.50;97.10;;;;;;4953649;29;20416;-59
2023/06/12 02:02:01;;;;;;;10.93;10.03;;;18.60;96.60;;;;;;4953873;29;20429;-59
2023/06/12 02:04:28;;;;;;;10.80;10.00;;;18.60;95.20;;;;;;4953636;29;20775;-59
2023/06/12 02:06:54;;;;;;;10.67;9.77;;;18.70;95.60;;;;;;4954371;29;20415;-59
2023/06/12 02:09:20;;;;;;;10.90;9.87;;;18.70;95.70;;;;;;4954002;29;20413;-59
2023/06/12 02:11:45;;;;;;;10.93;9.90;;;18.80;95.20;;;;;;4953485;29;20173;-59
2023/06/12 02:14:11;;;;;;;10.50;9.60;;;18.80;95.60;;;;;;4953642;29;20195;-60
2023/06/12 02:16:37;;;;;;;9.90;9.10;;;18.80;95.00;;;;;;4948247;29;20594;-59
2023/06/12 02:19:03;;;;;;;10.67;9.80;;;18.80;94.90;;;;;;4934995;29;20217;-59
2023/06/12 02:21:28;;;;;;;11.03;9.90;;;18.80;95.60;;;;;;4933021;29;20178;-59
2023/06/12 02:23:54;;;;;;;11.43;10.60;;;18.80;95.30;;;;;;4934853;29;20170;-60
2023/06/12 02:26:20;;;;;;;11.67;10.60;;;18.80;95.40;;;;;;4948420;29;20188;-60
2023/06/12 02:29:04;;;;;;;10.60;9.70;;;18.80;95.40;;;;;;4953288;29;20756;-59
2023/06/12 02:31:30;;;;;;;10.70;9.80;;;18.70;95.50;;;;;;4955699;28;20273;-59
2023/06/12 02:33:56;;;;;;;10.53;9.73;;;18.70;96.10;;;;;;4952976;29;20508;-60
2023/06/12 02:36:21;;;;;;;11.90;10.80;;;18.70;95.60;;;;;;4938794;29;20213;-59
2023/06/12 02:38:48;;;;;;;12.00;11.00;;;18.70;95.70;;;;;;4938329;29;20208;-59
2023/06/12 02:41:13;;;;;;;11.30;10.50;;;18.60;95.40;;;;;;4944464;29;20188;-59
2023/06/12 02:43:40;;;;;;;10.77;9.80;;;18.60;95.80;;;;;;4958389;28;20464;-59
2023/06/12 02:46:05;;;;;;;12.83;10.90;;;18.60;96.10;;;;;;4957485;28;20560;-59
2023/06/12 02:48:31;;;;;;;10.60;9.60;;;18.60;96.20;;;;;;4957044;28;20432;-59
2023/06/12 02:50:57;;;;;;;11.70;10.70;;;18.60;96.80;;;;;;4957180;29;20636;-59
2023/06/12 02:53:23;;;;;;;12.10;10.90;;;18.50;96.30;;;;;;4957851;28;20216;-59
2023/06/12 02:55:49;;;;;;;11.20;10.20;;;18.50;96.50;;;;;;4956818;29;20400;-59
2023/06/12 02:58:15;;;;;;;12.57;11.57;;;18.50;96.40;;;;;;4956000;28;20212;-59
2023/06/12 03:00:41;;;;;;;11.87;10.77;;;18.50;96.30;;;;;;4956742;29;20427;-59
2023/06/12 03:03:07;;;;;;;12.17;11.17;;;18.50;96.40;;;;;;4955688;29;20181;-59
2023/06/12 03:05:34;;;;;;;11.97;10.93;;;18.50;98.40;;;;;;4955410;29;20232;-59
2023/06/12 03:08:03;;;;;;;11.33;10.37;;;18.40;97.10;;;;;;4937262;29;20449;-59
2023/06/12 03:10:29;;;;;;;10.43;9.70;;;18.40;96.90;;;;;;4937866;29;20411;-58
2023/06/12 03:12:55;;;;;;;12.83;10.40;;;18.40;96.90;;;;;;4937669;29;20417;-59
2023/06/12 03:15:21;;;;;;;11.37;10.37;;;18.40;96.70;;;;;;4938254;29;20805;-59
2023/06/12 03:17:47;;;;;;;10.87;10.03;;;18.40;96.80;;;;;;4937336;29;20286;-58
2023/06/12 03:20:14;;;;;;;11.10;10.20;;;18.40;96.90;;;;;;4937837;29;20440;-59
2023/06/12 03:22:41;;;;;;;11.90;10.90;;;18.40;97.00;;;;;;4937250;29;20762;-59
2023/06/12 03:25:09;;;;;;;11.50;10.70;;;18.40;96.60;;;;;;4944958;29;20428;-59
2023/06/12 03:27:35;;;;;;;11.63;10.67;;;18.40;96.80;;;;;;4955680;28;20945;-59
2023/06/12 03:30:00;;;;;;;10.77;9.77;;;18.40;97.10;;;;;;4956342;28;20424;-60
2023/06/12 03:32:26;;;;;;;13.30;12.00;;;18.30;97.60;;;;;;4956685;29;20411;-59
2023/06/12 03:34:52;;;;;;;11.70;10.67;;;18.30;96.90;;;;;;4953800;28;20216;-59
2023/06/12 03:37:18;;;;;;;11.77;10.67;;;18.30;96.80;;;;;;4956023;28;20455;-59
2023/06/12 03:39:44;;;;;;;11.20;10.13;;;18.30;97.70;;;;;;4956096;28;20185;-59
2023/06/12 03:42:10;;;;;;;11.57;10.47;;;18.20;99.00;;;;;;4955969;28;20459;-59
2023/06/12 03:44:36;;;;;;;11.13;10.17;;;18.20;97.20;;;;;;4955935;28;20221;-59
2023/06/12 03:47:03;;;;;;;13.80;12.40;;;18.20;96.80;;;;;;4956728;29;20420;-59
2023/06/12 03:49:28;;;;;;;12.40;11.30;;;18.20;96.60;;;;;;4956701;29;20472;-59
2023/06/12 03:51:55;;;;;;;12.70;11.37;;;18.20;96.90;;;;;;4956093;28;20475;-60
2023/06/12 03:54:21;;;;;;;11.07;10.07;;;18.10;96.70;;;;;;4956639;29;20181;-59
2023/06/12 03:56:48;;;;;;;11.87;10.80;;;18.10;96.40;;;;;;4953988;28;20499;-59
2023/06/12 03:59:15;;;;;;;12.53;11.40;;;18.10;96.60;;;;;;4953942;29;20429;-59
2023/06/12 04:01:42;;;;;;;13.40;12.10;;;18.20;97.10;;;;;;4944432;29;20417;-59
2023/06/12 04:04:09;;;;;;;12.30;11.10;;;18.20;98.40;;;;;;4955560;29;20512;-59
2023/06/12 04:06:40;;;;;;;12.33;11.30;;;18.20;97.50;;;;;;4955935;29;20436;-59
2023/06/12 04:09:07;;;;;;;12.20;11.30;;;18.20;97.90;;;;;;4956885;28;20762;-59
2023/06/12 04:11:34;;;;;;;13.03;10.63;;;18.20;97.00;;;;;;4955856;28;20440;-59
2023/06/12 04:14:01;;;;;;;13.37;12.27;;;18.20;96.90;;;;;;4956491;28;20432;-59
2023/06/12 04:16:27;;;;;;;11.67;10.57;;;18.20;97.50;;;;;;4956723;28;20452;-59
2023/06/12 04:18:53;;;;;;;12.33;10.60;;;18.30;96.90;;;;;;4955014;28;20432;-59
2023/06/12 04:21:21;;;;;;;12.00;10.80;;;18.20;96.40;;;;;;4956229;28;20908;-59
2023/06/12 04:23:47;;;;;;;11.77;10.63;;;18.20;96.60;;;;;;4953989;29;20757;-59
2023/06/12 04:26:14;;;;;;;11.90;10.90;;;18.30;96.80;;;;;;4956063;28;20420;-59
2023/06/12 04:28:41;;;;;;;12.00;10.80;;;18.30;97.10;;;;;;4954500;28;20521;-59
2023/06/12 04:31:08;;;;;;;12.57;11.43;;;18.40;97.60;;;;;;4955063;28;20429;-59
2023/06/12 04:33:35;;;;;;;12.23;11.23;;;18.40;98.40;;;;;;4955465;28;20417;-59
2023/06/12 04:36:07;;;;;;;11.43;10.33;;;18.40;97.90;;;;;;4955907;28;20408;-59
2023/06/12 04:38:36;;;;;;;11.60;10.60;;;18.50;97.70;;;;;;4955702;28;20750;-60
2023/06/12 04:41:02;;;;;;;11.97;10.87;;;18.50;98.30;;;;;;4956121;28;20436;-60
2023/06/12 04:43:29;;;;;;;13.00;11.80;;;18.50;98.80;;;;;;4956036;28;20436;-59
2023/06/12 04:45:55;;;;;;;11.97;10.77;;;18.50;97.00;;;;;;4951349;28;21990;-58
2023/06/12 04:48:21;;;;;;;12.17;11.17;;;18.40;96.70;;;;;;4949866;28;20425;-59
2023/06/12 04:50:47;;;;;;;14.03;12.30;;;18.50;96.90;;;;;;4955400;28;20420;-58
2023/06/12 04:53:19;;;;;;;12.40;11.30;;;18.40;97.00;;;;;;4955167;28;20177;-59
2023/06/12 04:55:50;;;;;;;13.50;12.27;;;18.40;97.40;;;;;;4955414;28;20488;-58
2023/06/12 04:58:18;;;;;;;11.90;10.80;;;18.40;96.80;;;;;;4955105;28;21144;-59
2023/06/12 05:00:50;;;;;;;14.30;11.00;;;18.30;97.60;;;;;;4954380;29;20531;-59
2023/06/12 05:03:17;;;;;;;11.50;10.50;;;18.30;97.90;;;;;;4955851;28;20401;-59
2023/06/12 05:05:46;;;;;;;13.40;12.20;;;18.30;97.70;;;;;;4954973;29;20421;-58
2023/06/12 05:08:13;;;;;;;13.23;11.93;;;18.30;97.70;;;;;;4952580;29;20448;-59
2023/06/12 05:10:42;;;;;;;12.73;11.67;;;18.40;98.20;;;;;;4954726;28;20971;-59
2023/06/12 05:13:08;;;;;;;13.07;11.83;;;18.50;98.30;;;;;;4955163;29;20431;-58
2023/06/12 05:15:34;;;;;;;14.27;12.97;;;18.60;97.80;;;;;;4954868;28;20449;-59
2023/06/12 05:18:02;;;;;;;15.00;13.50;;;18.70;97.00;;;;;;4954925;28;20805;-59
2023/06/12 05:20:28;;;;;;;14.00;12.80;;;18.70;96.50;;;;;;4955486;29;20418;-59
2023/06/12 05:22:55;;;;;;;13.00;11.77;;;18.70;96.70;;;;;;4954775;28;20624;-58
2023/06/12 05:25:21;;;;;;;12.20;11.13;;;18.70;96.70;;;;;;4955628;28;20532;-58
2023/06/12 05:27:46;;;;;;;12.93;11.73;;;18.70;97.30;;;;;;4954640;29;20416;-59
2023/06/12 05:30:12;;;;;;;12.20;11.20;;;18.90;97.00;;;;;;4955251;28;20187;-59
2023/06/12 05:32:38;;;;;;;12.37;11.17;;;18.90;96.60;;;;;;4952447;28;20637;-59
2023/06/12 05:35:05;;;;;;;13.60;12.40;;;19.00;96.80;;;;;;4954245;29;20200;-59
2023/06/12 05:37:30;;;;;;;14.20;12.90;;;19.10;96.80;;;;;;4954225;28;20205;-59
2023/06/12 05:39:56;;;;;;;14.73;13.40;;;19.10;96.40;;;;;;4953584;29;20420;-59
2023/06/12 05:42:22;;;;;;;13.70;12.50;;;19.10;95.80;;;;;;4952915;28;20312;-59
2023/06/12 05:44:47;;;;;;;14.00;12.50;;;19.20;96.70;;;;;;4952092;29;20275;-59
2023/06/12 05:47:14;;;;;;;11.03;10.13;;;19.30;96.50;;;;;;4955026;29;20656;-59
2023/06/12 05:49:40;;;;;;;13.33;12.23;;;19.30;95.40;;;;;;4954206;28;20191;-59
2023/06/12 05:52:06;;;;;;;13.50;12.50;;;19.30;95.50;;;;;;4954147;28;20428;-63
2023/06/12 05:54:32;;;;;;;12.73;11.50;;;19.20;95.60;;;;;;4953981;29;20192;-61
2023/06/12 05:56:58;;;;;;;12.43;11.40;;;19.20;96.10;;;;;;4948966;29;20464;-61
2023/06/12 05:59:24;;;;;;;12.10;11.10;;;19.10;96.20;;;;;;4951543;29;20436;-60
2023/06/12 06:01:50;;;;;;;12.73;11.43;;;19.10;96.60;;;;;;4951312;29;20231;-60
2023/06/12 06:04:16;;;;;;;12.37;11.23;;;19.10;96.90;;;;;;4952635;28;20512;-61
2023/06/12 06:06:42;;;;;;;11.07;10.20;;;19.10;97.40;;;;;;4956893;28;20523;-60
2023/06/12 06:09:08;;;;;;;12.10;11.00;;;19.10;97.30;;;;;;4954022;28;20192;-60
2023/06/12 06:11:34;;;;;;;11.60;10.60;;;19.10;97.90;;;;;;4950644;29;20432;-60
2023/06/12 06:14:00;;;;;;;11.87;10.83;;;19.20;98.20;;;;;;4953432;28;20431;-59
2023/06/12 06:16:26;;;;;;;11.43;10.53;;;19.40;99.10;;;;;;4954135;29;20460;-59
2023/06/12 06:18:52;;;;;;;11.30;10.27;;;19.50;98.50;;;;;;4954026;28;20177;-60
2023/06/12 06:21:18;;;;;;;11.50;10.50;;;19.50;97.90;;;;;;4953873;28;20435;-59
2023/06/12 06:23:45;;;;;;;11.77;10.67;;;19.50;98.00;;;;;;4953968;29;20456;-59
2023/06/12 06:26:11;;;;;;;11.97;10.97;;;19.50;98.00;;;;;;4953643;28;20424;-59
2023/06/12 06:28:37;;;;;;;13.00;11.27;;;19.60;98.60;;;;;;4954524;28;20499;-59
2023/06/12 06:31:09;;;;;;;11.83;10.90;;;19.40;97.30;;;;;;4951517;29;20483;-59
2023/06/12 06:33:35;;;;;;;11.50;10.40;;;19.50;97.10;;;;;;4952611;29;20442;-59
2023/06/12 06:36:02;;;;;;;12.23;11.07;;;19.50;97.20;;;;;;4951855;28;20438;-59
2023/06/12 06:38:27;;;;;;;12.03;10.50;;;19.50;97.10;;;;;;4954270;29;20495;-59
2023/06/12 06:40:53;;;;;;;11.07;10.17;;;19.50;97.40;;;;;;4953584;28;20780;-59
2023/06/12 06:43:20;;;;;;;11.23;10.27;;;19.70;98.10;;;;;;4952302;29;20221;-65
2023/06/12 06:45:45;;;;;;;11.17;10.27;;;19.90;99.50;;;;;;4951964;28;20225;-61
2023/06/12 06:48:12;;;;;;;10.87;10.07;;;20.10;97.70;;;;;;4952596;28;20475;-62
2023/06/12 06:50:39;;;;;;;11.60;10.80;;;20.30;96.70;;;;;;4952467;28;20217;-61
2023/06/12 06:53:05;;;;;;;12.30;11.30;;;20.40;96.10;;;;;;4952054;29;20789;-62
2023/06/12 06:55:32;;;;;;;12.03;10.87;;;20.50;96.20;;;;;;4943819;28;20425;-64
2023/06/12 06:57:58;;;;;;;11.40;10.30;;;20.70;96.00;;;;;;4950765;28;20209;-63
2023/06/12 07:00:25;;;;;;;11.47;10.57;;;20.80;96.40;;;;;;4951288;28;20512;-62
2023/06/12 07:02:51;;;;;;;11.47;10.67;;;20.90;96.10;;;;;;4950191;29;20436;-61
2023/06/12 07:05:17;;;;;;;10.33;9.53;;;21.10;95.70;;;;;;4953336;28;20409;-60
2023/06/12 07:07:49;;;;;;;10.83;9.93;;;21.10;95.30;;;;;;4950722;28;20219;-60
2023/06/12 07:10:15;;;;;;;11.40;10.60;;;21.30;94.80;;;;;;4953333;28;20425;-60
2023/06/12 07:12:42;;;;;;;11.20;10.10;;;21.40;95.20;;;;;;4953517;28;20447;-60
2023/06/12 07:15:08;;;;;;;11.30;10.27;;;21.50;94.90;;;;;;4953370;29;20440;-60
2023/06/12 07:17:34;;;;;;;11.47;10.43;;;21.60;95.00;;;;;;4955326;28;20461;-60
2023/06/12 07:20:00;;;;;;;11.03;10.07;;;21.80;94.70;;;;;;4955506;28;20424;-61
2023/06/12 07:22:29;;;;;;;11.57;10.57;;;21.90;93.60;;;;;;4953997;29;20189;-61
2023/06/12 07:24:54;;;;;;;10.30;9.40;;;21.90;93.40;;;;;;4945092;29;20429;-61
2023/06/12 07:27:20;;;;;;;10.23;9.43;;;22.10;94.10;;;;;;4955163;29;20433;-61
2023/06/12 07:29:46;;;;;;;10.63;9.77;;;22.30;93.60;;;;;;4955780;29;20405;-60
2023/06/12 07:32:12;;;;;;;10.00;9.20;;;22.40;92.90;;;;;;4956244;29;20409;-61
2023/06/12 07:34:38;;;;;;;10.20;9.50;;;22.60;92.50;;;;;;4956248;28;20590;-61
2023/06/12 07:37:04;;;;;;;11.53;10.17;;;22.80;93.20;;;;;;4955649;28;20224;-61
2023/06/12 07:39:30;;;;;;;11.23;10.13;;;22.90;93.60;;;;;;4955419;28;20197;-61
2023/06/12 07:41:56;;;;;;;10.83;10.03;;;23.10;94.10;;;;;;4955351;28;20407;-60
2023/06/12 07:44:22;;;;;;;11.30;10.50;;;23.20;93.60;;;;;;4917202;28;1140539;-60
2023/06/12 07:46:48;;;;;;;11.17;10.27;;;23.40;91.40;;;;;;4956643;28;20177;-60
2023/06/12 07:49:16;;;;;;;12.13;11.23;;;23.60;91.20;;;;;;4957052;29;20177;-60
2023/06/12 07:51:41;;;;;;;11.07;10.13;;;23.80;91.10;;;;;;4957062;29;20177;-60
2023/06/12 07:54:07;;;;;;;10.83;10.03;;;23.90;90.70;;;;;;4956122;29;20423;-60
2023/06/12 07:56:35;;;;;;;11.73;10.70;;;24.00;90.30;;;;;;4956661;29;20201;-60
2023/06/12 07:59:09;;;;;;;11.53;10.43;;;24.00;88.90;;;;;;4956383;28;20580;-60
2023/06/12 08:01:36;;;;;;;11.93;11.03;;;24.10;90.40;;;;;;4956963;28;20508;-60
2023/06/12 08:04:05;;;;;;;11.67;10.87;;;24.30;91.00;;;;;;4956300;29;20449;-60
2023/06/12 08:06:33;;;;;;;10.60;9.67;;;24.50;90.10;;;;;;4956806;29;20417;-60
2023/06/12 08:09:00;;;;;;;11.70;10.80;;;24.70;90.40;;;;;;4955416;28;20784;-60
2023/06/12 08:11:25;;;;;;;10.80;10.00;;;24.80;90.20;;;;;;4956347;28;20463;-60
2023/06/12 08:13:52;;;;;;;12.63;11.53;;;24.90;90.20;;;;;;4955466;29;20421;-60
2023/06/12 08:16:20;;;;;;;11.60;10.67;;;25.10;90.20;;;;;;4956856;29;20184;-60
2023/06/12 08:18:46;;;;;;;10.33;9.50;;;25.20;87.50;;;;;;4955860;29;20471;-60
2023/06/12 08:21:12;;;;;;;11.27;10.27;;;25.30;87.90;;;;;;4956268;29;20445;-60
2023/06/12 08:23:38;;;;;;;11.23;10.33;;;25.50;87.60;;;;;;4956606;28;20462;-60
2023/06/12 08:26:04;;;;;;;11.53;10.53;;;25.60;88.80;;;;;;4955872;28;20220;-60
2023/06/12 08:28:30;;;;;;;11.10;10.20;;;25.70;87.80;;;;;;4953671;28;20236;-60
2023/06/12 08:30:57;;;;;;;11.17;10.30;;;25.90;87.70;;;;;;4953996;28;20564;-60
2023/06/12 08:33:24;;;;;;;10.70;9.80;;;26.00;87.80;;;;;;4949395;29;20958;-61
2023/06/12 08:35:50;;;;;;;10.40;9.60;;;26.20;85.40;;;;;;4940310;29;20479;-60
2023/06/12 08:38:16;;;;;;;11.97;11.07;;;26.30;84.80;;;;;;4955220;28;20547;-60
2023/06/12 08:40:43;;;;;;;11.80;10.90;;;26.40;84.70;;;;;;4948550;28;20206;-61
2023/06/12 08:43:09;;;;;;;11.47;10.70;;;26.50;84.00;;;;;;4950629;28;20473;-65
2023/06/12 08:45:37;;;;;;;10.47;9.43;;;26.70;84.60;;;;;;4952467;29;20473;-63
2023/06/12 08:48:06;;;;;;;10.60;9.87;;;26.80;83.30;;;;;;4954860;28;20425;-63
2023/06/12 08:50:33;;;;;;;11.07;10.20;;;26.90;81.90;;;;;;4955743;28;20755;-63
2023/06/12 08:53:00;;;;;;;11.70;10.70;;;27.00;79.00;;;;;;4954924;28;20417;-62
2023/06/12 08:55:27;;;;;;;10.90;10.20;;;27.10;80.70;;;;;;4954678;29;20445;-63
2023/06/12 08:57:53;;;;;;;10.60;9.80;;;27.20;79.00;;;;;;4954514;28;20453;-63
2023/06/12 09:00:21;;;;;;;10.80;10.00;;;27.40;79.10;;;;;;4954742;29;20861;-63
2023/06/12 09:02:53;;;;;;;12.67;11.53;;;27.40;78.40;;;;;;4954970;28;20451;-63
2023/06/12 09:05:33;;;;;;;11.47;10.57;;;27.50;79.60;;;;;;4955723;28;20928;-63
2023/06/12 09:08:08;;;;;;;11.60;10.70;;;27.60;80.20;;;;;;4955151;28;20776;-63
2023/06/12 09:10:36;;;;;;;10.40;9.60;;;27.70;74.30;;;;;;4956025;28;20495;-63
2023/06/12 09:13:09;;;;;;;10.23;9.63;;;27.60;67.30;;;;;;4954682;29;20842;-62
2023/06/12 09:15:37;;;;;;;12.37;10.13;;;27.70;66.70;;;;;;4955493;29;20417;-63
2023/06/12 09:18:09;;;;;;;10.90;10.20;;;27.70;63.70;;;;;;4954924;28;20456;-63
2023/06/12 09:20:36;;;;;;;10.50;9.80;;;27.60;61.40;;;;;;4955576;29;20488;-63
2023/06/12 09:23:04;;;;;;;10.37;9.47;;;27.60;62.00;;;;;;4955060;28;20972;-63
2023/06/12 09:25:35;;;;;;;10.70;9.90;;;27.80;66.70;;;;;;4955087;29;20409;-64
2023/06/12 09:28:04;;;;;;;10.50;9.70;;;28.00;66.90;;;;;;4954018;29;20433;-63
2023/06/12 09:30:38;;;;;;;10.70;9.80;;;28.10;66.60;;;;;;4955329;28;20439;-63
2023/06/12 09:33:05;;;;;;;10.27;9.50;;;28.30;66.50;;;;;;4953650;29;20428;-63
2023/06/12 09:35:31;;;;;;;9.63;9.03;;;28.50;63.70;;;;;;4954138;29;20417;-63
2023/06/12 09:37:57;;;;;;;10.83;10.03;;;28.60;62.50;;;;;;4954498;29;20961;-63
2023/06/12 09:40:23;;;;;;;10.47;9.77;;;28.60;59.10;;;;;;4954956;28;20180;-63
2023/06/12 09:42:50;;;;;;;10.37;9.60;;;28.50;58.40;;;;;;4955346;29;20436;-64
2023/06/12 09:45:20;;;;;;;9.90;9.20;;;28.50;60.00;;;;;;4955043;28;20597;-63
2023/06/12 09:47:48;;;;;;;10.00;9.30;;;28.40;58.40;;;;;;4955082;28;20416;-64
2023/06/12 09:50:18;;;;;;;11.07;10.27;;;28.30;57.70;;;;;;4954367;28;20765;-63
2023/06/12 09:52:46;;;;;;;9.40;8.80;;;28.40;58.10;;;;;;4952843;28;20424;-63
2023/06/12 09:55:13;;;;;;;10.70;10.00;;;28.30;58.00;;;;;;4952619;28;21131;-63
2023/06/12 09:57:43;;;;;;;10.23;9.43;;;28.30;58.50;;;;;;4954417;28;20492;-63
2023/06/12 10:00:11;;;;;;;9.47;8.50;;;28.40;57.70;;;;;;4953729;29;20416;-63
2023/06/12 10:02:45;;;;;;;10.07;9.43;;;28.50;57.30;;;;;;4954631;28;20413;-64
2023/06/12 10:05:16;;;;;;;9.73;9.13;;;28.60;56.60;;;;;;4953788;29;20924;-63
2023/06/12 10:07:52;;;;;;;10.07;9.43;;;28.70;55.60;;;;;;4954346;28;20411;-63
2023/06/12 10:10:19;;;;;;;10.47;9.87;;;28.60;54.90;;;;;;4953992;29;20405;-63
2023/06/12 10:12:45;;;;;;;11.17;10.27;;;28.50;55.90;;;;;;4954060;29;20511;-63
2023/06/12 10:15:15;;;;;;;10.27;9.67;;;28.40;58.30;;;;;;4953492;28;20500;-63
2023/06/12 10:17:41;;;;;;;10.03;9.40;;;28.60;58.30;;;;;;4954196;28;20464;-63
2023/06/12 10:20:10;;;;;;;10.40;9.70;;;28.60;57.10;;;;;;4952204;29;20773;-63
2023/06/12 10:22:36;;;;;;;10.70;9.90;;;28.70;56.80;;;;;;4954336;28;20462;-63
2023/06/12 10:25:02;;;;;;;11.10;10.30;;;28.90;58.50;;;;;;4952698;28;20776;-63
2023/06/12 10:27:30;;;;;;;12.27;11.47;;;29.00;59.00;;;;;;4954183;28;20417;-63
2023/06/12 10:29:57;;;;;;;11.13;10.43;;;29.10;56.50;;;;;;4953442;28;20417;-62
2023/06/12 10:32:23;;;;;;;11.07;10.10;;;28.90;55.60;;;;;;4954397;28;20838;-64
2023/06/12 10:34:53;;;;;;;12.10;11.23;;;28.80;57.80;;;;;;4953292;28;20504;-63
2023/06/12 10:37:25;;;;;;;11.00;10.30;;;28.80;59.10;;;;;;4953446;28;20492;-63
2023/06/12 10:40:21;;;;;;;10.77;10.07;;;28.70;59.80;;;;;;4953732;28;20788;-63
2023/06/12 10:42:52;;;;;;;11.00;10.20;;;28.50;58.10;;;;;;4951684;28;20432;-63
2023/06/12 10:45:32;;;;;;;11.30;10.43;;;28.50;60.30;;;;;;4953125;28;20468;-63
2023/06/12 10:48:04;;;;;;;11.33;10.53;;;28.60;59.40;;;;;;4952408;28;20435;-65
2023/06/12 10:50:34;;;;;;;11.63;10.77;;;28.60;59.20;;;;;;4954476;28;20759;-64
2023/06/12 10:53:05;;;;;;;11.00;10.20;;;28.70;58.40;;;;;;4957137;28;20467;-64
2023/06/12 10:55:32;;;;;;;10.07;9.37;;;28.80;59.40;;;;;;4958302;28;20800;-63
2023/06/12 10:58:00;;;;;;;10.67;9.80;;;28.80;57.40;;;;;;4957243;29;20452;-62
2023/06/12 11:00:37;;;;;;;10.70;10.00;;;28.70;56.60;;;;;;4957694;29;20416;-63
2023/06/12 11:03:19;;;;;;;10.83;10.13;;;28.50;55.70;;;;;;4956949;28;20408;-63
2023/06/12 11:05:49;;;;;;;10.60;9.90;;;28.40;55.90;;;;;;4958117;28;20415;-64
2023/06/12 11:08:16;;;;;;;18.87;17.23;;;28.10;54.30;;;;;;4957409;28;20507;-64
2023/06/12 11:10:42;;;;;;;10.70;10.00;;;28.10;55.60;;;;;;4956593;29;20408;-63
2023/06/12 11:13:10;;;;;;;11.20;10.30;;;28.30;60.50;;;;;;4956897;28;20409;-63
2023/06/12 11:15:46;;;;;;;11.17;10.37;;;28.20;54.70;;;;;;4957726;29;20409;-63
2023/06/12 11:18:13;;;;;;;10.50;9.80;;;28.30;55.00;;;;;;4956478;28;20444;-63
2023/06/12 11:20:40;;;;;;;10.53;9.93;;;28.50;57.60;;;;;;4957364;29;20904;-63
2023/06/12 11:23:06;;;;;;;10.60;9.90;;;28.70;56.50;;;;;;4957094;29;20412;-63
2023/06/12 11:25:43;;;;;;;11.43;10.63;;;28.90;57.10;;;;;;4957638;29;20405;-63
2023/06/12 11:28:19;;;;;;;11.73;10.90;;;29.20;58.40;;;;;;4957038;28;20407;-63
2023/06/12 11:30:47;;;;;;;11.80;10.97;;;29.30;56.60;;;;;;4957582;28;20733;-64
2023/06/12 11:33:15;;;;;;;12.27;11.37;;;29.40;52.10;;;;;;4956942;28;20409;-63
2023/06/12 11:35:49;;;;;;;12.10;11.10;;;29.10;50.10;;;;;;4957170;28;20921;-63
2023/06/12 11:38:17;;;;;;;10.80;9.90;;;29.00;52.20;;;;;;4956220;28;20809;-63
2023/06/12 11:40:51;;;;;;;10.50;9.50;;;28.90;53.10;;;;;;4957064;28;20433;-64
2023/06/12 11:43:24;;;;;;;12.10;11.07;;;28.80;53.20;;;;;;4956953;29;20519;-63
2023/06/12 11:45:52;;;;;;;10.27;9.57;;;28.70;52.50;;;;;;4957496;28;20948;-63
2023/06/12 11:48:18;;;;;;;11.67;10.87;;;28.90;57.00;;;;;;4956124;29;20440;-63
2023/06/12 11:50:52;;;;;;;11.43;10.63;;;28.90;52.60;;;;;;4956491;29;20605;-63
2023/06/12 11:53:20;;;;;;;12.23;11.03;;;29.00;52.40;;;;;;4955987;29;20487;-63
2023/06/12 11:55:47;;;;;;;11.23;10.33;;;29.10;53.90;;;;;;4956724;28;20452;-63
2023/06/12 11:58:13;;;;;;;11.10;10.27;;;29.30;54.10;;;;;;4955971;28;20507;-63
2023/06/12 12:00:41;;;;;;;12.20;11.40;;;29.40;54.30;;;;;;4957090;28;20404;-63
2023/06/12 12:03:13;;;;;;;11.80;10.80;;;29.50;54.10;;;;;;4956183;28;20177;-63
2023/06/12 12:05:39;;;;;;;11.43;10.60;;;29.60;53.50;;;;;;4957299;28;20487;-63
2023/06/12 12:08:07;;;;;;;11.30;10.40;;;29.80;54.20;;;;;;4955087;29;20846;-63
2023/06/12 12:10:39;;;;;;;11.67;10.87;;;29.80;52.80;;;;;;4956361;28;20505;-62
2023/06/12 12:13:06;;;;;;;10.93;10.13;;;29.90;52.90;;;;;;4937255;29;20430;-62
2023/06/12 12:15:38;;;;;;;12.17;11.27;;;30.00;53.00;;;;;;4936398;29;20461;-63
2023/06/12 12:18:09;;;;;;;12.33;11.43;;;30.00;52.20;;;;;;4939188;29;20456;-63
2023/06/12 12:20:35;;;;;;;11.03;10.30;;;30.00;52.10;;;;;;4938857;29;20777;-63
2023/06/12 12:23:03;;;;;;;12.70;11.80;;;30.10;52.00;;;;;;4937121;29;20405;-63
2023/06/12 12:25:31;;;;;;;12.70;11.80;;;30.10;51.20;;;;;;4937187;29;20645;-63
2023/06/12 12:28:03;;;;;;;11.77;10.93;;;30.20;51.00;;;;;;4937293;29;20417;-64
2023/06/12 12:30:30;;;;;;;13.00;12.10;;;30.20;51.00;;;;;;4937631;29;20406;-63
2023/06/12 12:32:58;;;;;;;12.10;11.10;;;30.30;52.50;;;;;;4937207;29;20492;-64
2023/06/12 12:35:25;;;;;;;11.43;10.60;;;30.20;52.00;;;;;;4935724;29;20421;-63